Share

Winside, NE

1 mile South of Wayne (KNEWAYNE2) Alt 1463 ft | 42.22 °N, 97.01 °W | Change Station

Current weather conditions updated 11 seconds ago

Clear
Despejado
54.0 ° F
Sensación térmica 54.0 ° F
N
0.0
Viento Variable Viento desde ENE
Gusts 0.0 mph
Amanecer 6:40 AM
Atardecer 8:15 PM
Luna Gibosa menguante

Hoy se prevé una temperatura muy similar a la de ayer. Tormentas de madrugada. tonight.

Presión 29.96 pul
Visibilidad 10.0 Millas
Nubes Despejado
Punto de rocío 44 ° F
Humedad 69%
Precipitaciones 0.00 pul
Espesor de la nieve No disponible.
UV 0 de una escala de 16
Polen 11.00 de una escala de 12
Calidad del aire No disponible.
Flu Activity Sporadic
METAR KSUX 200752Z 12004KT 10SM CLR 13/08 A2997 RMK AO2 SLP144 T01280078

More Conditions Fewer Conditions

Presión 29.96 pul
Visibilidad 10.0 Millas
Nubes Despejado
Punto de rocío 44 ° F
Humedad 69%
Precipitaciones 0.00 pul
Espesor de la nieve No disponible.
UV 0 de una escala de 16
Polen 11.00 de una escala de 12
Calidad del aire No disponible.
Flu Activity Sporadic
METAR KSUX 200752Z 12004KT 10SM CLR 13/08 A2997 RMK AO2 SLP144 T01280078

More Conditions Fewer Conditions

10-Day Weather Forecast

Almanac

Astronomía

Apr. 20, 2014 Salida Puesta
Hora real 6:40 AM CDT 8:15 PM CDT
Crepúsculo civil 6:10 AM CDT 8:45 PM CDT
Crepúsculo náutico 5:35 AM CDT 9:21 PM CDT
Crepúsculo astronómico 4:57 AM CDT 9:59 PM CDT
Luna 12:58 AM CDT 11:00 AM CDT
Horas de luz 14h 34m
Horas de luz
13h 35m
Tomorrow will be 2m 39s longer.
Gibosa menguante, 72% of the Moon is Illuminated
Hoy
Gibosa menguante
Abr 22
Cuarto menguante
Abr 29
Nueva
May 6
Cuarto creciente
May 14
Luna llena

Extremos de hoy

Máximos del estado Bajos del estado

Community

  • Sunny day at the coast-Cape Arago Lighthouse
    Sunny day at the coast-Cape Arago Lighthouse
  • Cherry Blossoms
    Cherry Blossoms
  • White-Crowned Sparrow
    White-Crowned Sparrow
  • New Day
    New Day
  • Happy Easter!
    Happy Easter!

WunderPhotos

Upload Photos

1,703,117 ¡fotos cargadas!

WunderBlogs® & News

Nearby

Grosos de nieve

Estación Profundido Altura
No tenemos constancia de nieve nueva.

Temperaturas de aguas costeras

Lugar Temperatura
Sin partes meteorológicos de las estaciones

Actividad de terremotos

Ciudad Distance Mag. Tiempo y dato
No hay informes recientes de la actividad sísmica.
Magnitud mínima muestra es 2,5.

Estaciones meteorológicas cercanas

Ubicación de la estación Temp. Punto de rocío Humedad Viento Precip. Alt Actualizado Tipo
1 mile South of Wayne, Wayne, NE 54.0 ° F 44 ° F 69% ENE  a  0.0 mph 0.00 pul / hr 1463 ft 3:19 AM CDT Rapid Fire
West Central - Norfolk, Norfolk, NE 55.9 ° F 41 ° F 57% NE  a  1.0 mph 0.00 pul / hr 1640 ft 3:15 AM CDT Normal

Show More Stations Show Fewer Stations

What do you think?

We're not finished. Please let us know what you like, what you don't like, and what you are still missing.